createdAt,value
2022-10-05T04:30:56.842Z,0.00
2022-10-05T04:31:56.717Z,0.00
2022-10-05T04:32:56.703Z,0.00
2022-10-05T04:33:56.691Z,0.00
2022-10-05T04:34:56.672Z,0.00
2022-10-05T04:35:56.699Z,0.00
2022-10-05T04:36:56.665Z,0.00
2022-10-05T04:37:56.633Z,0.00
2022-10-05T04:38:56.634Z,0.00
2022-10-05T04:39:56.614Z,0.00
2022-10-05T04:40:56.627Z,0.00
2022-10-05T04:41:56.626Z,0.00
2022-10-05T04:42:56.601Z,0.00
2022-10-05T04:43:56.573Z,0.00
2022-10-05T04:44:59.216Z,0.00
2022-10-05T04:45:56.551Z,0.00
2022-10-05T04:46:56.630Z,0.00
2022-10-05T04:47:56.532Z,0.00
2022-10-05T04:48:56.547Z,0.00
2022-10-05T04:49:56.513Z,0.00
2022-10-05T04:50:56.504Z,0.00
2022-10-05T04:51:56.490Z,0.00
2022-10-05T04:52:56.477Z,0.00
2022-10-05T04:53:56.484Z,0.00
2022-10-05T04:54:56.471Z,0.00
2022-10-05T04:55:56.446Z,0.00
2022-10-05T04:56:56.437Z,0.00
2022-10-05T04:57:56.429Z,0.00
2022-10-05T04:58:56.433Z,0.00
2022-10-05T04:59:56.403Z,0.00
2022-10-05T05:00:56.438Z,0.00
2022-10-05T05:01:56.384Z,0.00
2022-10-05T05:02:56.382Z,0.00
2022-10-05T05:03:56.458Z,0.00
2022-10-05T05:04:56.354Z,0.00
2022-10-05T05:06:15.801Z,0.00
2022-10-05T05:06:57.332Z,0.00
2022-10-05T05:07:56.313Z,0.00
2022-10-05T05:08:56.300Z,0.00
2022-10-05T05:09:56.317Z,0.00
2022-10-05T05:10:56.284Z,0.00
2022-10-05T05:11:56.309Z,0.00
2022-10-05T05:12:56.284Z,0.00
2022-10-05T05:13:56.251Z,0.00
2022-10-05T05:14:56.237Z,0.00
2022-10-05T05:15:56.263Z,0.00
2022-10-05T05:16:56.216Z,0.00
2022-10-05T05:17:56.242Z,0.00
2022-10-05T05:18:56.232Z,4.00
2022-10-05T05:19:56.183Z,0.00
2022-10-05T05:20:56.185Z,0.00
2022-10-05T05:21:56.162Z,0.00
2022-10-05T05:22:56.171Z,0.00
2022-10-05T05:23:56.170Z,4.00
2022-10-05T05:24:56.147Z,4.00
2022-10-05T05:25:56.115Z,0.00
2022-10-05T05:26:56.112Z,4.00
2022-10-05T05:27:56.142Z,4.00
2022-10-05T05:28:56.086Z,4.00
2022-10-05T05:29:56.086Z,4.00
2022-10-05T05:30:56.113Z,8.00
2022-10-05T05:31:56.051Z,8.00
2022-10-05T05:32:56.044Z,8.00
2022-10-05T05:33:56.057Z,8.00
2022-10-05T05:34:56.041Z,8.00
2022-10-05T05:35:56.031Z,12.00
2022-10-05T05:36:55.997Z,12.00
2022-10-05T05:37:55.990Z,12.00
2022-10-05T05:38:55.978Z,16.00
2022-10-05T05:39:56.022Z,16.00
2022-10-05T05:40:55.957Z,16.00
2022-10-05T05:41:55.970Z,20.00
2022-10-05T05:42:55.951Z,20.00
2022-10-05T05:43:55.963Z,20.00
2022-10-05T05:44:55.914Z,24.00
2022-10-05T05:45:55.912Z,28.00
2022-10-05T05:47:03.866Z,28.00
2022-10-05T05:47:56.903Z,32.00
2022-10-05T05:48:55.885Z,32.00
2022-10-05T05:49:55.858Z,36.00
2022-10-05T05:50:55.885Z,36.00
2022-10-05T05:51:55.835Z,36.00
2022-10-05T05:52:55.852Z,40.00
2022-10-05T05:53:55.856Z,44.00
2022-10-05T05:54:55.806Z,44.00
2022-10-05T05:55:55.871Z,48.00
2022-10-05T05:56:55.790Z,52.00
2022-10-05T05:57:55.782Z,56.00
2022-10-05T05:58:55.866Z,60.00
2022-10-05T05:59:55.769Z,64.00
2022-10-05T06:00:55.742Z,72.00
2022-10-05T06:01:55.858Z,76.00
2022-10-05T06:02:55.829Z,76.00
2022-10-05T06:03:55.732Z,84.00
2022-10-05T06:04:55.717Z,88.00
2022-10-05T06:05:55.703Z,92.00
2022-10-05T06:06:55.702Z,96.00
2022-10-05T06:07:55.664Z,104.00
2022-10-05T06:08:55.674Z,116.00
2022-10-05T06:09:55.667Z,128.00
2022-10-05T06:10:55.633Z,136.00
2022-10-05T06:11:55.635Z,164.00
2022-10-05T06:12:58.510Z,156.00
2022-10-05T06:13:56.638Z,252.00
2022-10-05T06:14:55.589Z,244.00
2022-10-05T06:15:55.674Z,296.00
2022-10-05T06:16:55.643Z,248.00
2022-10-05T06:17:55.575Z,328.00
2022-10-05T06:18:55.585Z,272.00
2022-10-05T06:19:55.556Z,392.00
2022-10-05T06:20:55.523Z,312.00
2022-10-05T06:21:55.536Z,280.00
2022-10-05T06:22:55.531Z,180.00
2022-10-05T06:23:55.508Z,468.00
2022-10-05T06:24:55.475Z,188.00
2022-10-05T06:25:55.465Z,192.00
2022-10-05T06:26:55.490Z,140.00
2022-10-05T06:27:55.532Z,140.00
2022-10-05T06:28:55.438Z,140.00
2022-10-05T06:29:55.460Z,136.00
2022-10-05T06:30:55.428Z,136.00
2022-10-05T06:31:58.904Z,136.00
2022-10-05T06:32:55.414Z,136.00
2022-10-05T06:33:55.379Z,136.00
2022-10-05T06:34:55.388Z,140.00
2022-10-05T06:35:55.374Z,148.00
2022-10-05T06:36:55.353Z,156.00
2022-10-05T06:37:55.382Z,164.00
2022-10-05T06:38:55.409Z,168.00
2022-10-05T06:40:00.079Z,176.00
2022-10-05T06:40:56.302Z,180.00
2022-10-05T06:41:55.345Z,184.00
2022-10-05T06:42:55.283Z,200.00
2022-10-05T06:43:55.292Z,208.00
2022-10-05T06:44:55.283Z,240.00
2022-10-05T06:45:55.338Z,272.00
2022-10-05T06:46:55.237Z,308.00
2022-10-05T06:47:55.246Z,408.00
2022-10-05T06:48:55.237Z,300.00
2022-10-05T06:49:55.207Z,304.00
2022-10-05T06:50:55.202Z,324.00
2022-10-05T06:51:55.221Z,368.00
2022-10-05T06:52:55.172Z,360.00
2022-10-05T06:53:55.174Z,320.00
2022-10-05T06:54:55.165Z,300.00
2022-10-05T06:55:55.159Z,296.00
2022-10-05T06:56:55.151Z,304.00
2022-10-05T06:57:55.179Z,332.00
2022-10-05T06:58:55.115Z,356.00
2022-10-05T06:59:55.128Z,360.00
2022-10-05T07:00:55.125Z,368.00
2022-10-05T07:01:55.166Z,412.00
2022-10-05T07:02:55.085Z,1632.00
2022-10-05T07:03:55.080Z,1704.00
2022-10-05T07:04:55.086Z,1620.00
2022-10-05T07:05:55.041Z,864.00
2022-10-05T07:06:55.026Z,468.00
2022-10-05T07:07:55.057Z,432.00
2022-10-05T07:08:54.997Z,440.00
2022-10-05T07:09:55.014Z,304.00
2022-10-05T07:10:55.026Z,268.00
2022-10-05T07:11:59.512Z,260.00
2022-10-05T07:12:55.953Z,252.00
2022-10-05T07:13:54.953Z,248.00
2022-10-05T07:14:54.948Z,256.00
2022-10-05T07:15:54.939Z,252.00
2022-10-05T07:16:54.979Z,236.00
2022-10-05T07:17:54.940Z,248.00
2022-10-05T07:18:54.893Z,260.00
2022-10-05T07:19:54.881Z,264.00
2022-10-05T07:20:54.894Z,268.00
2022-10-05T07:21:54.895Z,284.00
2022-10-05T07:22:54.859Z,280.00
2022-10-05T07:23:54.881Z,268.00
2022-10-05T07:24:54.821Z,264.00
2022-10-05T07:25:54.821Z,280.00
2022-10-05T07:26:54.854Z,280.00
2022-10-05T07:27:54.831Z,288.00
2022-10-05T07:28:54.795Z,304.00
2022-10-05T07:29:54.773Z,344.00
2022-10-05T07:30:54.830Z,368.00
2022-10-05T07:31:54.758Z,368.00
2022-10-05T07:32:54.766Z,348.00
2022-10-05T07:33:54.727Z,344.00
2022-10-05T07:34:54.756Z,328.00
2022-10-05T07:35:54.705Z,324.00
2022-10-05T07:36:55.350Z,328.00
2022-10-05T07:37:54.703Z,328.00
2022-10-05T07:38:54.681Z,328.00
2022-10-05T07:40:01.850Z,352.00
2022-10-05T07:40:55.665Z,372.00
2022-10-05T07:41:54.693Z,400.00
2022-10-05T07:42:54.698Z,428.00
2022-10-05T07:44:03.047Z,460.00
2022-10-05T07:44:55.638Z,432.00
2022-10-05T07:45:54.640Z,412.00
2022-10-05T07:46:54.667Z,404.00
2022-10-05T07:47:54.583Z,392.00
2022-10-05T07:48:54.562Z,380.00
2022-10-05T07:49:54.552Z,376.00
2022-10-05T07:50:54.553Z,368.00
2022-10-05T07:51:54.548Z,376.00
2022-10-05T07:52:54.544Z,356.00
2022-10-05T07:53:54.511Z,360.00
2022-10-05T07:54:54.526Z,384.00
2022-10-05T07:55:54.497Z,392.00
2022-10-05T07:56:54.476Z,440.00
2022-10-05T07:57:54.482Z,440.00
2022-10-05T07:58:54.493Z,428.00
2022-10-05T07:59:54.461Z,420.00
2022-10-05T08:00:54.435Z,412.00
2022-10-05T08:01:54.492Z,408.00
2022-10-05T08:02:54.480Z,388.00
2022-10-05T08:03:54.399Z,396.00
2022-10-05T08:04:54.408Z,380.00
2022-10-05T08:05:54.384Z,384.00
2022-10-05T08:06:54.390Z,396.00
2022-10-05T08:07:54.358Z,396.00
2022-10-05T08:08:54.506Z,372.00
2022-10-05T08:09:54.335Z,372.00
2022-10-05T08:10:54.327Z,376.00
2022-10-05T08:11:54.332Z,408.00
2022-10-05T08:12:54.310Z,404.00
2022-10-05T08:13:54.333Z,404.00
2022-10-05T08:14:54.300Z,404.00
2022-10-05T08:15:54.295Z,388.00
2022-10-05T08:16:54.264Z,388.00
2022-10-05T08:17:54.258Z,416.00
2022-10-05T08:18:54.283Z,420.00
2022-10-05T08:19:54.265Z,432.00
2022-10-05T08:20:54.240Z,428.00
2022-10-05T08:21:54.210Z,424.00
2022-10-05T08:22:54.197Z,416.00
2022-10-05T08:23:54.197Z,404.00
2022-10-05T08:24:54.186Z,404.00
2022-10-05T08:25:54.170Z,416.00
2022-10-05T08:26:54.232Z,436.00
2022-10-05T08:27:54.209Z,408.00
2022-10-05T08:28:54.173Z,400.00
2022-10-05T08:29:54.176Z,456.00
2022-10-05T08:30:54.167Z,404.00
2022-10-05T08:31:54.161Z,380.00
2022-10-05T08:32:54.726Z,392.00
2022-10-05T08:33:54.086Z,404.00
2022-10-05T08:34:54.071Z,412.00
2022-10-05T08:35:54.094Z,436.00
2022-10-05T08:36:54.713Z,464.00
2022-10-05T08:37:54.067Z,476.00
2022-10-05T08:38:54.106Z,464.00
2022-10-05T08:39:54.030Z,464.00
2022-10-05T08:40:54.029Z,452.00
2022-10-05T08:41:54.014Z,460.00
2022-10-05T08:42:54.022Z,552.00
2022-10-05T08:43:54.084Z,548.00
2022-10-05T08:44:53.969Z,524.00
2022-10-05T08:45:54.061Z,520.00
2022-10-05T08:46:54.046Z,560.00
2022-10-05T08:47:53.950Z,568.00
2022-10-05T08:48:53.946Z,576.00
2022-10-05T08:49:53.918Z,560.00
2022-10-05T08:51:01.031Z,548.00
2022-10-05T08:51:53.906Z,588.00
2022-10-05T08:52:53.932Z,552.00
2022-10-05T08:53:53.884Z,580.00
2022-10-05T08:54:53.859Z,724.00
2022-10-05T08:55:53.865Z,736.00
2022-10-05T08:56:53.865Z,904.00
2022-10-05T08:57:53.871Z,748.00
2022-10-05T08:58:53.839Z,740.00
2022-10-05T08:59:53.820Z,1120.00
2022-10-05T09:00:53.797Z,820.00
2022-10-05T09:01:53.868Z,2492.00
2022-10-05T09:02:53.887Z,648.00
2022-10-05T09:03:53.793Z,696.00
2022-10-05T09:04:53.755Z,692.00
2022-10-05T09:05:53.790Z,756.00
2022-10-05T09:06:53.730Z,1016.00
2022-10-05T09:07:53.716Z,716.00
2022-10-05T09:08:53.729Z,2488.00
2022-10-05T09:09:56.264Z,1760.00
2022-10-05T09:10:54.812Z,1756.00
2022-10-05T09:11:53.678Z,2232.00
2022-10-05T09:12:53.664Z,2520.00
2022-10-05T09:13:53.718Z,888.00
2022-10-05T09:15:20.566Z,2564.00
2022-10-05T09:17:03.713Z,700.00
2022-10-05T09:18:03.708Z,664.00
2022-10-05T09:19:03.871Z,896.00
2022-10-05T09:20:03.664Z,716.00
2022-10-05T09:21:03.705Z,716.00
2022-10-05T09:22:03.786Z,812.00
2022-10-05T09:23:03.625Z,1560.00
2022-10-05T09:24:03.623Z,1904.00
2022-10-05T09:25:03.616Z,1260.00
2022-10-05T09:26:03.602Z,2808.00
2022-10-05T09:27:03.593Z,1368.00
2022-10-05T09:28:03.872Z,928.00
2022-10-05T09:29:03.578Z,1068.00
2022-10-05T09:30:03.555Z,664.00
2022-10-05T09:31:03.738Z,1808.00
2022-10-05T09:32:03.535Z,1888.00
2022-10-05T09:33:03.545Z,2508.00
2022-10-05T09:34:03.539Z,2436.00
2022-10-05T09:35:03.508Z,1792.00
2022-10-05T09:36:03.514Z,2316.00
2022-10-05T09:37:03.523Z,664.00
2022-10-05T09:38:03.525Z,792.00
2022-10-05T09:39:03.487Z,2000.00
2022-10-05T09:40:03.535Z,1004.00
2022-10-05T09:41:03.525Z,2472.00
2022-10-05T09:42:03.440Z,2560.00
2022-10-05T09:43:03.409Z,2444.00
2022-10-05T09:44:03.425Z,712.00
2022-10-05T09:45:03.413Z,576.00
2022-10-05T09:46:54.614Z,1524.00
2022-10-05T09:47:54.551Z,1904.00
2022-10-05T09:48:54.522Z,2116.00
2022-10-05T09:49:54.553Z,2376.00
2022-10-05T09:51:02.387Z,2424.00
2022-10-05T09:51:54.512Z,2296.00
2022-10-05T09:52:54.523Z,2204.00
2022-10-05T09:53:54.493Z,2208.00
2022-10-05T09:54:54.632Z,2188.00
2022-10-05T09:55:54.425Z,2188.00
2022-10-05T09:56:54.489Z,2176.00
2022-10-05T09:59:04.195Z,2132.00
2022-10-05T10:00:04.205Z,2196.00
2022-10-05T10:01:15.534Z,2216.00
2022-10-05T10:02:05.275Z,2172.00
2022-10-05T10:03:04.235Z,2148.00
2022-10-05T10:04:04.113Z,2164.00
2022-10-05T10:05:04.194Z,2172.00
2022-10-05T10:06:04.095Z,2152.00
2022-10-05T10:07:04.081Z,2116.00
2022-10-05T10:08:04.125Z,2096.00
2022-10-05T10:09:04.093Z,2104.00
2022-10-05T10:10:04.087Z,2140.00
2022-10-05T10:11:04.066Z,2220.00
2022-10-05T10:12:04.032Z,2164.00
2022-10-05T10:13:04.074Z,2120.00
2022-10-05T10:14:04.079Z,2096.00
2022-10-05T10:15:04.031Z,2128.00
2022-10-05T10:16:04.044Z,2168.00
2022-10-05T10:17:04.006Z,2152.00
2022-10-05T10:18:03.965Z,2132.00
2022-10-05T10:19:03.973Z,2160.00
2022-10-05T10:20:03.968Z,2128.00
2022-10-05T10:21:03.995Z,2088.00
2022-10-05T10:22:03.940Z,2116.00
2022-10-05T10:23:03.939Z,2152.00
2022-10-05T10:24:03.896Z,2108.00
2022-10-05T10:25:03.912Z,2092.00
2022-10-05T10:26:04.042Z,2080.00
2022-10-05T10:27:03.873Z,2084.00
2022-10-05T10:28:03.898Z,2076.00
2022-10-05T10:29:03.848Z,2068.00
2022-10-05T10:30:03.857Z,2072.00
2022-10-05T10:31:03.921Z,2076.00
2022-10-05T10:32:03.826Z,2064.00
2022-10-05T10:33:03.821Z,2056.00
2022-10-05T10:34:03.811Z,2060.00
2022-10-05T10:35:03.777Z,2052.00
2022-10-05T10:36:06.192Z,2072.00
2022-10-05T10:37:03.788Z,1832.00
2022-10-05T10:38:03.752Z,1920.00
2022-10-05T10:39:03.757Z,2080.00
2022-10-05T10:40:03.747Z,2056.00
2022-10-05T10:41:03.710Z,2052.00
2022-10-05T10:42:03.723Z,2024.00
2022-10-05T10:43:03.711Z,2028.00
2022-10-05T10:44:03.770Z,2048.00
2022-10-05T10:45:03.737Z,2048.00
2022-10-05T10:46:12.308Z,2028.00
2022-10-05T10:47:03.788Z,2012.00
2022-10-05T10:48:03.676Z,2020.00
2022-10-05T10:49:03.684Z,2020.00
2022-10-05T10:50:03.698Z,2008.00
2022-10-05T10:51:03.650Z,2012.00
2022-10-05T10:52:03.664Z,2008.00
2022-10-05T10:53:03.713Z,2008.00
2022-10-05T10:54:03.591Z,2012.00
2022-10-05T10:55:03.562Z,2004.00
2022-10-05T10:56:03.566Z,2012.00
2022-10-05T10:57:03.530Z,1972.00
2022-10-05T10:58:03.662Z,1976.00
2022-10-05T10:59:03.550Z,1968.00
2022-10-05T11:00:03.627Z,1980.00
2022-10-05T11:01:03.558Z,1940.00
2022-10-05T11:02:03.602Z,1944.00
2022-10-05T11:03:03.548Z,1948.00
2022-10-05T11:04:03.527Z,1956.00
2022-10-05T11:05:03.443Z,1944.00
2022-10-05T11:06:03.433Z,1972.00
2022-10-05T11:07:03.423Z,2028.00
2022-10-05T11:08:03.452Z,2040.00
2022-10-05T11:09:03.457Z,2020.00
2022-10-05T11:10:03.407Z,1976.00
2022-10-05T11:11:03.385Z,1964.00
2022-10-05T11:12:03.393Z,1932.00
2022-10-05T11:13:03.547Z,1940.00
2022-10-05T11:14:03.351Z,1928.00
2022-10-05T11:15:03.333Z,1892.00
2022-10-05T11:16:03.469Z,1864.00
2022-10-05T11:17:03.385Z,1872.00
2022-10-05T11:18:03.301Z,1864.00
2022-10-05T11:19:03.292Z,1856.00
2022-10-05T11:20:05.084Z,1852.00
2022-10-05T11:21:03.299Z,1776.00
2022-10-05T11:22:03.252Z,1860.00
2022-10-05T11:23:03.355Z,1880.00
2022-10-05T11:24:03.259Z,1892.00
2022-10-05T11:25:03.267Z,1852.00
2022-10-05T11:26:03.213Z,1840.00
2022-10-05T11:27:03.201Z,1816.00
2022-10-05T11:28:03.269Z,1828.00
2022-10-05T11:29:03.197Z,1812.00
2022-10-05T11:30:03.216Z,1836.00
2022-10-05T11:31:03.290Z,1808.00
2022-10-05T11:32:03.174Z,1816.00
2022-10-05T11:33:03.136Z,1804.00
2022-10-05T11:34:03.161Z,1788.00
2022-10-05T11:35:03.115Z,1788.00
2022-10-05T11:36:03.108Z,1760.00
2022-10-05T11:37:03.101Z,1756.00
2022-10-05T11:38:03.098Z,1760.00
2022-10-05T11:39:03.074Z,1764.00
2022-10-05T11:40:03.139Z,1756.00
2022-10-05T11:41:03.084Z,1752.00
2022-10-05T11:42:03.042Z,1736.00
2022-10-05T11:43:03.030Z,1740.00
2022-10-05T11:44:06.222Z,1748.00
2022-10-05T11:45:03.040Z,1744.00
2022-10-05T11:46:03.095Z,1736.00
2022-10-05T11:47:03.011Z,1736.00
2022-10-05T11:48:02.973Z,1728.00
2022-10-05T11:49:03.001Z,1724.00
2022-10-05T11:50:03.027Z,1720.00
2022-10-05T11:51:03.092Z,1716.00
2022-10-05T11:52:02.932Z,1712.00
2022-10-05T11:53:02.942Z,1716.00
2022-10-05T11:54:02.929Z,1708.00
2022-10-05T11:55:10.922Z,1712.00
2022-10-05T11:56:03.938Z,1708.00
2022-10-05T11:57:02.918Z,1720.00
2022-10-05T11:58:02.862Z,1828.00
2022-10-05T11:59:02.884Z,1816.00
2022-10-05T12:00:02.843Z,1816.00
2022-10-05T12:01:02.862Z,1692.00
2022-10-05T12:02:02.919Z,1696.00
2022-10-05T12:03:02.918Z,1688.00
2022-10-05T12:04:02.980Z,1696.00
2022-10-05T12:05:02.792Z,1688.00
2022-10-05T12:06:02.818Z,1672.00
2022-10-05T12:07:11.923Z,1668.00
2022-10-05T12:08:02.877Z,1664.00
2022-10-05T12:09:02.760Z,1668.00
2022-10-05T12:10:02.829Z,1664.00
2022-10-05T12:11:02.838Z,1656.00
2022-10-05T12:12:02.715Z,1652.00
2022-10-05T12:13:02.868Z,1632.00
2022-10-05T12:14:02.720Z,1628.00
2022-10-05T12:15:02.677Z,1616.00
2022-10-05T12:16:02.720Z,1616.00
2022-10-05T12:17:02.664Z,1612.00
2022-10-05T12:18:02.712Z,1596.00
2022-10-05T12:19:02.658Z,1580.00
2022-10-05T12:20:02.684Z,1560.00
2022-10-05T12:21:02.638Z,1544.00
2022-10-05T12:22:02.700Z,1552.00
2022-10-05T12:23:02.626Z,1540.00
2022-10-05T12:24:02.607Z,1540.00
2022-10-05T12:25:02.620Z,1532.00
2022-10-05T12:26:02.591Z,1524.00
2022-10-05T12:27:02.557Z,1508.00
2022-10-05T12:28:02.599Z,1504.00
2022-10-05T12:29:02.562Z,1500.00
2022-10-05T12:30:02.564Z,1492.00
2022-10-05T12:31:02.614Z,1484.00
2022-10-05T12:32:02.492Z,1468.00
2022-10-05T12:33:02.581Z,1460.00
2022-10-05T12:34:02.471Z,1460.00
2022-10-05T12:35:02.497Z,1448.00
2022-10-05T12:36:02.445Z,1448.00
2022-10-05T12:37:04.665Z,1436.00
2022-10-05T12:38:02.423Z,1428.00
2022-10-05T12:39:02.468Z,1420.00
2022-10-05T12:40:02.473Z,1408.00
2022-10-05T12:41:02.415Z,1412.00
2022-10-05T12:42:02.388Z,1400.00
2022-10-05T12:43:02.366Z,1396.00
2022-10-05T12:44:02.417Z,1404.00
2022-10-05T12:45:02.527Z,1352.00
2022-10-05T12:46:02.377Z,1348.00
2022-10-05T12:47:02.360Z,1340.00
2022-10-05T12:48:02.313Z,1336.00
2022-10-05T12:49:02.331Z,1332.00
2022-10-05T12:50:02.406Z,1332.00
2022-10-05T12:51:02.307Z,1320.00
2022-10-05T12:52:02.367Z,1304.00
2022-10-05T12:53:02.260Z,1292.00
2022-10-05T12:54:02.410Z,1288.00
2022-10-05T12:55:02.298Z,1280.00
2022-10-05T12:56:02.275Z,1268.00
2022-10-05T12:57:02.238Z,1264.00
2022-10-05T12:58:02.203Z,1264.00
2022-10-05T12:59:02.200Z,1256.00
2022-10-05T13:00:02.223Z,1252.00
2022-10-05T13:01:02.219Z,1228.00
2022-10-05T13:02:02.281Z,1240.00
2022-10-05T13:03:02.175Z,1228.00
2022-10-05T13:04:02.220Z,1224.00
2022-10-05T13:05:02.224Z,1224.00
2022-10-05T13:06:02.882Z,1216.00
2022-10-05T13:07:02.109Z,1188.00
2022-10-05T13:08:02.131Z,1176.00
2022-10-05T13:09:02.089Z,1176.00
2022-10-05T13:10:02.108Z,1152.00
2022-10-05T13:11:02.337Z,1160.00
2022-10-05T13:12:02.566Z,1156.00
2022-10-05T13:13:02.040Z,1148.00
2022-10-05T13:14:02.031Z,1148.00
2022-10-05T13:15:02.038Z,1144.00
2022-10-05T13:16:02.062Z,1140.00
2022-10-05T13:17:02.061Z,1128.00
2022-10-05T13:18:02.000Z,1124.00
2022-10-05T13:19:02.008Z,1116.00
2022-10-05T13:20:01.985Z,1108.00
2022-10-05T13:21:02.003Z,1100.00
2022-10-05T13:22:01.959Z,1096.00
2022-10-05T13:23:01.986Z,1092.00
2022-10-05T13:24:01.919Z,1088.00
2022-10-05T13:25:01.917Z,1080.00
2022-10-05T13:26:01.944Z,1068.00
2022-10-05T13:27:01.924Z,1060.00
2022-10-05T13:28:01.956Z,1052.00
2022-10-05T13:29:01.909Z,1048.00
2022-10-05T13:30:01.901Z,1052.00
2022-10-05T13:31:02.122Z,1032.00
2022-10-05T13:32:09.399Z,1016.00
2022-10-05T13:33:01.912Z,1008.00
2022-10-05T13:34:01.816Z,1004.00
2022-10-05T13:35:01.806Z,992.00
2022-10-05T13:36:01.833Z,992.00
2022-10-05T13:37:01.817Z,988.00
2022-10-05T13:38:01.933Z,976.00
2022-10-05T13:39:01.820Z,976.00
2022-10-05T13:40:01.774Z,968.00
2022-10-05T13:41:01.746Z,972.00
2022-10-05T13:42:01.750Z,976.00
2022-10-05T13:43:01.796Z,968.00
2022-10-05T13:44:01.729Z,960.00
2022-10-05T13:45:01.737Z,956.00
2022-10-05T13:46:01.781Z,952.00
2022-10-05T13:47:02.524Z,940.00
2022-10-05T13:48:01.679Z,944.00
2022-10-05T13:49:01.705Z,928.00
2022-10-05T13:50:01.965Z,912.00
2022-10-05T13:51:01.649Z,912.00
2022-10-05T13:52:01.660Z,900.00
2022-10-05T13:53:01.618Z,888.00
2022-10-05T13:54:01.615Z,880.00
2022-10-05T13:55:01.593Z,856.00
2022-10-05T13:56:01.594Z,808.00
2022-10-05T13:57:01.587Z,700.00
2022-10-05T13:58:01.554Z,604.00
2022-10-05T13:59:01.557Z,536.00
2022-10-05T14:00:01.531Z,452.00
2022-10-05T14:01:01.550Z,408.00
2022-10-05T14:02:01.577Z,384.00
2022-10-05T14:03:01.531Z,376.00
2022-10-05T14:04:02.171Z,328.00
2022-10-05T14:05:11.375Z,308.00
2022-10-05T14:06:01.524Z,276.00
2022-10-05T14:07:01.466Z,256.00
2022-10-05T14:08:01.463Z,248.00
2022-10-05T14:09:01.440Z,248.00
2022-10-05T14:10:01.441Z,248.00
2022-10-05T14:11:01.514Z,248.00
2022-10-05T14:12:01.435Z,264.00
2022-10-05T14:13:01.422Z,284.00
2022-10-05T14:14:01.384Z,272.00
2022-10-05T14:15:01.391Z,252.00
2022-10-05T14:16:01.437Z,232.00
2022-10-05T14:17:04.418Z,224.00
2022-10-05T14:18:01.343Z,224.00
2022-10-05T14:19:01.371Z,232.00
2022-10-05T14:20:01.351Z,224.00
2022-10-05T14:21:01.345Z,216.00
2022-10-05T14:22:01.290Z,216.00
2022-10-05T14:23:01.288Z,232.00
2022-10-05T14:24:15.310Z,236.00
2022-10-05T14:25:01.314Z,280.00
2022-10-05T14:26:04.097Z,356.00
2022-10-05T14:27:01.240Z,528.00
2022-10-05T14:28:01.306Z,568.00
2022-10-05T14:29:01.236Z,584.00
2022-10-05T14:30:01.211Z,552.00
2022-10-05T14:31:10.136Z,512.00
2022-10-05T14:32:01.314Z,480.00
2022-10-05T14:33:01.217Z,452.00
2022-10-05T14:34:01.159Z,380.00
2022-10-05T14:35:01.245Z,304.00
2022-10-05T14:36:01.200Z,276.00
2022-10-05T14:37:01.163Z,276.00
2022-10-05T14:38:01.169Z,248.00
2022-10-05T14:39:01.124Z,248.00
2022-10-05T14:40:01.175Z,228.00
2022-10-05T14:41:01.118Z,204.00
2022-10-05T14:42:01.168Z,196.00
2022-10-05T14:43:01.064Z,196.00
2022-10-05T14:44:02.144Z,196.00
2022-10-05T14:45:01.037Z,188.00
2022-10-05T14:46:01.131Z,184.00
2022-10-05T14:47:01.037Z,176.00
2022-10-05T14:48:01.012Z,172.00
2022-10-05T14:49:01.021Z,168.00
2022-10-05T14:50:01.003Z,168.00
2022-10-05T14:51:00.974Z,164.00
2022-10-05T14:52:00.982Z,160.00
2022-10-05T14:53:00.958Z,160.00
2022-10-05T14:54:00.936Z,160.00
2022-10-05T14:55:01.011Z,152.00
2022-10-05T14:56:00.942Z,148.00
2022-10-05T14:57:00.909Z,148.00
2022-10-05T14:58:00.903Z,144.00
2022-10-05T14:59:00.922Z,144.00
2022-10-05T15:00:00.892Z,144.00
2022-10-05T15:01:00.984Z,144.00
2022-10-05T15:02:00.918Z,144.00
2022-10-05T15:03:00.930Z,144.00
2022-10-05T15:04:01.072Z,140.00
2022-10-05T15:05:00.860Z,140.00
2022-10-05T15:06:00.875Z,140.00
2022-10-05T15:07:04.047Z,136.00
2022-10-05T15:08:00.813Z,132.00
2022-10-05T15:09:00.783Z,132.00
2022-10-05T15:10:00.861Z,128.00
2022-10-05T15:11:13.631Z,128.00
2022-10-05T15:12:00.758Z,128.00
2022-10-05T15:13:00.729Z,124.00
2022-10-05T15:14:00.766Z,124.00
2022-10-05T15:15:00.717Z,124.00
2022-10-05T15:16:00.713Z,124.00
2022-10-05T15:17:00.836Z,116.00
2022-10-05T15:18:00.723Z,120.00
2022-10-05T15:19:00.669Z,116.00
2022-10-05T15:20:00.728Z,116.00
2022-10-05T15:21:00.697Z,112.00
2022-10-05T15:22:00.647Z,116.00
2022-10-05T15:23:00.625Z,112.00
2022-10-05T15:24:00.626Z,112.00
2022-10-05T15:25:00.647Z,116.00
2022-10-05T15:26:00.614Z,116.00
2022-10-05T15:27:00.604Z,116.00
2022-10-05T15:28:00.616Z,112.00
2022-10-05T15:29:00.623Z,112.00
2022-10-05T15:30:00.563Z,112.00
2022-10-05T15:31:00.654Z,112.00
2022-10-05T15:32:00.571Z,112.00
2022-10-05T15:33:00.516Z,112.00
2022-10-05T15:34:00.511Z,108.00
2022-10-05T15:35:00.495Z,112.00
2022-10-05T15:36:00.530Z,112.00
2022-10-05T15:37:00.468Z,108.00
2022-10-05T15:38:00.465Z,108.00
2022-10-05T15:39:00.718Z,108.00
2022-10-05T15:40:00.477Z,108.00
2022-10-05T15:41:00.465Z,108.00
2022-10-05T15:42:00.439Z,104.00
2022-10-05T15:43:08.102Z,108.00
2022-10-05T15:44:00.403Z,104.00
2022-10-05T15:45:00.385Z,108.00
2022-10-05T15:46:00.484Z,104.00
2022-10-05T15:47:00.382Z,100.00
2022-10-05T15:48:00.445Z,104.00
2022-10-05T15:49:00.344Z,104.00
2022-10-05T15:50:00.335Z,100.00
2022-10-05T15:51:00.536Z,100.00
2022-10-05T15:52:01.148Z,100.00
2022-10-05T15:53:00.369Z,96.00
2022-10-05T15:54:04.700Z,96.00
2022-10-05T15:55:00.376Z,96.00
2022-10-05T15:56:00.296Z,96.00
2022-10-05T15:57:00.306Z,96.00
2022-10-05T15:58:00.297Z,92.00
2022-10-05T15:59:00.362Z,92.00
2022-10-05T16:00:11.301Z,92.00
2022-10-05T16:01:00.288Z,92.00
2022-10-05T16:02:00.257Z,92.00
2022-10-05T16:03:00.200Z,88.00
2022-10-05T16:04:00.229Z,88.00
2022-10-05T16:05:04.583Z,88.00
2022-10-05T16:06:00.169Z,88.00
2022-10-05T16:07:00.173Z,88.00
2022-10-05T16:08:00.137Z,84.00
2022-10-05T16:09:00.242Z,84.00
2022-10-05T16:10:00.114Z,84.00
2022-10-05T16:11:00.102Z,84.00
2022-10-05T16:12:00.113Z,84.00
2022-10-05T16:13:00.107Z,80.00
2022-10-05T16:14:00.129Z,80.00
2022-10-05T16:15:00.058Z,80.00
2022-10-05T16:16:00.081Z,76.00
2022-10-05T16:17:00.171Z,76.00
2022-10-05T16:18:00.047Z,76.00
2022-10-05T16:19:00.037Z,72.00
2022-10-05T16:20:00.026Z,72.00
2022-10-05T16:21:00.065Z,72.00
2022-10-05T16:22:00.003Z,72.00
2022-10-05T16:22:59.979Z,68.00
2022-10-05T16:23:59.960Z,72.00
2022-10-05T16:25:00.004Z,68.00
2022-10-05T16:25:59.983Z,68.00
2022-10-05T16:26:59.953Z,60.00
2022-10-05T16:28:04.568Z,56.00
2022-10-05T16:29:00.982Z,52.00
2022-10-05T16:29:59.891Z,52.00
2022-10-05T16:30:59.967Z,48.00
2022-10-05T16:31:59.893Z,48.00
2022-10-05T16:32:59.896Z,40.00
2022-10-05T16:33:59.894Z,40.00
2022-10-05T16:34:59.873Z,36.00
2022-10-05T16:35:59.825Z,32.00
2022-10-05T16:36:59.813Z,28.00
2022-10-05T16:37:59.804Z,24.00
2022-10-05T16:39:00.263Z,20.00
2022-10-05T16:39:59.831Z,20.00
2022-10-05T16:41:02.095Z,20.00
2022-10-05T16:41:59.762Z,16.00
2022-10-05T16:42:59.746Z,16.00
2022-10-05T16:43:59.768Z,16.00
2022-10-05T16:44:59.772Z,12.00
2022-10-05T16:45:59.774Z,16.00
2022-10-05T16:46:59.715Z,12.00
2022-10-05T16:47:59.780Z,8.00
2022-10-05T16:48:59.735Z,8.00
2022-10-05T16:49:59.673Z,8.00
2022-10-05T16:50:59.740Z,8.00
2022-10-05T16:51:59.742Z,8.00
2022-10-05T16:52:59.637Z,8.00
2022-10-05T16:53:59.637Z,4.00
2022-10-05T16:54:59.649Z,8.00
2022-10-05T16:55:59.682Z,4.00
2022-10-05T16:56:59.637Z,8.00
2022-10-05T16:57:59.594Z,4.00
2022-10-05T16:58:59.599Z,4.00
2022-10-05T16:59:59.673Z,4.00
2022-10-05T17:00:59.596Z,4.00
2022-10-05T17:01:59.606Z,4.00